Time;durP1;ratioP1;P1;durP2;ratioP2;P2;SDS_P1;SDS_P2;PMS_P1;PMS_P2;Temp;Humidity;BMP_temperature;BMP_pressure;BME280_temperature;BME280_humidity;BME280_pressure;Samples;Min_cycle;Max_cycle;Signal;HPM_P1;HPM_P2
2022/01/01 00:02:33;;;;;;;80.40;31.85;;;;;;;8.53;100.00;101868.81;10269026;28;20027;-89
2022/01/01 00:07:39;;;;;;;67.30;27.98;;;;;;;6.46;100.00;101569.59;10267245;28;20487;-89
2022/01/01 00:12:41;;;;;;;58.85;24.55;;;;;;;6.74;100.00;101511.94;10267703;28;20034;-91
2022/01/01 00:17:42;;;;;;;59.80;25.25;;;;;;;7.81;100.00;101780.13;10251665;28;20435;-91
2022/01/01 00:22:42;;;;;;;60.35;27.38;;;;;;;5.82;100.00;101454.28;10283127;28;20050;-91
2022/01/01 00:27:43;;;;;;;62.35;30.92;;;;;;;8.54;100.00;101793.66;10265509;28;20035;-88
2022/01/01 00:32:43;;;;;;;73.07;34.10;;;;;;;7.73;100.00;101762.03;10266424;28;20035;-89
2022/01/01 00:37:44;;;;;;;79.00;33.80;;;;;;;3.96;100.00;101113.69;10282691;28;20026;-93
2022/01/01 00:42:45;;;;;;;71.50;32.60;;;;;;;7.58;100.00;101685.53;10266504;28;20130;-90
2022/01/01 00:47:45;;;;;;;72.90;38.72;;;;;;;8.47;100.00;101999.53;10266582;28;20099;-90
2022/01/01 00:52:47;;;;;;;87.15;36.65;;;;;;;8.05;100.00;101792.34;10250202;28;20039;-91
2022/01/01 00:57:47;;;;;;;73.15;33.65;;;;;;;6.23;100.00;101661.09;10265051;28;20030;-88
2022/01/01 01:02:48;;;;;;;79.47;36.70;;;;;;;7.48;100.00;101812.03;10247758;28;20046;-88
2022/01/01 01:07:48;;;;;;;74.28;34.88;;;;;;;3.70;100.00;101225.25;10262907;28;20022;-88
2022/01/01 01:12:49;;;;;;;82.47;38.38;;;;;;;8.44;100.00;101835.28;10262828;28;20133;-88
2022/01/01 01:17:50;;;;;;;72.43;33.00;;;;;;;5.97;100.00;101428.69;10278865;28;20627;-88
2022/01/01 01:22:50;;;;;;;76.88;34.53;;;;;;;4.28;100.00;101231.22;10280662;28;20042;-90
2022/01/01 01:27:51;;;;;;;78.53;33.15;;;;;;;3.51;100.00;101188.69;10265224;28;20023;-90
2022/01/01 01:32:52;;;;;;;82.22;35.70;;;;;;;6.40;100.00;101485.66;10280693;28;20428;-90
2022/01/01 01:37:52;;;;;;;73.05;30.38;;;;;;;7.88;100.00;101822.94;10248430;28;20074;-90
2022/01/01 01:42:54;;;;;;;69.60;28.65;;;;;;;8.94;100.00;102068.09;10264360;28;20097;-91
2022/01/01 01:47:54;;;;;;;69.32;25.63;;;;;;;5.73;100.00;101640.50;10267667;28;20472;-91
2022/01/01 01:52:55;;;;;;;66.57;24.08;;;;;;;8.10;100.00;101861.06;10263522;28;20062;-90
2022/01/01 01:57:56;;;;;;;63.95;23.95;;;;;;;4.23;100.00;101226.34;10261775;28;20031;-89
2022/01/01 02:02:56;;;;;;;56.67;21.52;;;;;;;7.20;100.00;101757.44;10258625;28;20030;-89
2022/01/01 02:07:57;;;;;;;65.28;23.27;;;;;;;4.06;100.00;101295.88;10260132;28;20396;-89
2022/01/01 02:12:58;;;;;;;68.07;25.30;;;;;;;5.57;100.00;101455.94;10277149;28;20106;-89
2022/01/01 02:17:58;;;;;;;77.43;30.58;;;;;;;4.61;100.00;101405.84;10276606;28;20053;-89
2022/01/01 02:23:00;;;;;;;80.50;35.38;;;;;;;5.63;100.00;101501.53;10262719;28;20038;-91
2022/01/01 02:28:01;;;;;;;87.95;35.55;;;;;;;7.06;100.00;101748.34;10281273;28;20050;-89
2022/01/01 02:33:01;;;;;;;95.45;39.25;;;;;;;3.64;100.00;101116.09;10249070;28;20046;-91
2022/01/01 02:38:02;;;;;;;105.90;43.50;;;;;;;6.87;100.00;101900.59;10279035;28;20054;-89
2022/01/01 02:43:03;;;;;;;109.60;45.13;;;;;;;5.70;100.00;101578.06;10276608;28;20030;-89
2022/01/01 02:48:04;;;;;;;117.13;45.72;;;;;;;5.38;100.00;101539.50;10261516;28;20066;-90
2022/01/01 02:53:13;;;;;;;109.40;42.30;;;;;;;4.27;100.00;101362.22;10265421;28;20035;-90
2022/01/01 02:58:14;;;;;;;102.82;42.38;;;;;;;5.25;100.00;101548.47;10277990;28;20027;-91
2022/01/01 03:03:14;;;;;;;103.03;39.38;;;;;;;2.97;100.00;101171.97;10276835;28;20033;-89
2022/01/01 03:08:15;;;;;;;104.28;39.75;;;;;;;6.26;100.00;101586.84;10259985;28;20098;-90
2022/01/01 03:13:17;;;;;;;85.82;35.53;;;;;;;7.55;100.00;101990.13;10260041;28;20480;-89
2022/01/01 03:18:17;;;;;;;89.15;34.33;;;;;;;3.69;100.00;101197.19;10283300;28;20485;-92
2022/01/01 03:23:18;;;;;;;81.53;34.10;;;;;;;6.88;100.00;101638.63;10284630;28;20050;-90
2022/01/01 03:28:18;;;;;;;92.72;36.78;;;;;;;9.07;100.00;102168.84;10248574;29;20035;-90
2022/01/01 03:33:21;;;;;;;90.80;34.20;;;;;;;7.02;100.00;101670.44;10260379;28;20039;-89
2022/01/01 03:38:21;;;;;;;100.03;38.05;;;;;;;7.09;100.00;101738.91;10267018;28;20042;-90
2022/01/01 03:43:22;;;;;;;86.05;34.13;;;;;;;3.38;100.00;101225.66;10267016;28;20118;-90
2022/01/01 03:48:22;;;;;;;82.85;35.50;;;;;;;6.41;100.00;101708.91;10272203;28;20456;-90
2022/01/01 03:53:25;;;;;;;103.38;39.45;;;;;;;7.73;100.00;101912.81;10236155;28;20042;-90
2022/01/01 03:58:25;;;;;;;87.20;34.78;;;;;;;6.32;100.00;101598.84;10261065;28;20034;-89
2022/01/01 04:03:26;;;;;;;81.97;36.33;;;;;;;7.32;100.00;101767.75;10243533;28;20038;-89
2022/01/01 04:08:29;;;;;;;87.30;35.03;;;;;;;5.89;100.00;101601.03;10210686;29;20023;-89
2022/01/01 04:13:30;;;;;;;94.68;37.30;;;;;;;7.72;100.00;101910.28;10226863;29;20047;-89
2022/01/01 04:18:40;;;;;;;85.90;35.83;;;;;;;5.93;100.00;101536.69;10209959;28;20078;-89
2022/01/01 04:23:45;;;;;;;89.85;37.70;;;;;;;7.30;100.00;101721.41;10223715;29;20043;-90
2022/01/01 04:28:45;;;;;;;87.18;38.28;;;;;;;5.58;100.00;101471.25;10262218;28;20033;-90
2022/01/01 04:33:46;;;;;;;90.43;39.60;;;;;;;8.40;100.00;101984.09;10282644;28;20361;-91
2022/01/01 04:38:46;;;;;;;91.60;39.17;;;;;;;6.26;100.00;101764.59;10281425;28;20035;-90
2022/01/01 04:43:47;;;;;;;98.32;40.78;;;;;;;6.93;100.00;101655.28;10281891;28;20077;-92
2022/01/01 04:48:48;;;;;;;89.35;43.92;;;;;;;8.47;100.00;102048.06;10282581;28;20045;-91
2022/01/01 04:53:49;;;;;;;87.95;42.13;;;;;;;7.25;100.00;101789.66;10264181;28;20030;-89
2022/01/01 04:58:50;;;;;;;104.07;44.92;;;;;;;6.60;100.00;101718.22;10264634;28;20042;-89
2022/01/01 05:03:50;;;;;;;103.18;44.17;;;;;;;5.96;100.00;101755.00;10281463;28;20579;-90
2022/01/01 05:08:51;;;;;;;110.80;47.55;;;;;;;7.76;100.00;101874.00;10271171;28;20027;-91
2022/01/01 05:13:51;;;;;;;104.95;50.53;;;;;;;7.77;100.00;102000.94;10267486;28;20476;-91
2022/01/01 05:18:52;;;;;;;120.25;59.08;;;;;;;5.34;100.00;101525.41;10282726;28;20086;-92
2022/01/01 05:23:52;;;;;;;121.55;57.97;;;;;;;5.46;100.00;101534.69;10281358;28;20046;-91
2022/01/01 05:28:53;;;;;;;142.50;60.40;;;;;;;5.58;100.00;101585.97;10264717;28;20031;-92
2022/01/01 05:33:55;;;;;;;128.20;58.03;;;;;;;4.80;100.00;101597.09;10265025;28;20066;-92
2022/01/01 05:38:55;;;;;;;128.77;61.70;;;;;;;5.64;100.00;101642.53;10263265;28;20054;-91
2022/01/01 05:43:56;;;;;;;117.68;58.20;;;;;;;6.18;100.00;101824.94;10264280;28;20027;-91
2022/01/01 05:48:56;;;;;;;137.75;57.65;;;;;;;6.34;100.00;101779.13;10279900;28;20058;-91
2022/01/01 05:53:57;;;;;;;121.03;58.83;;;;;;;5.46;100.00;101630.28;10264247;28;20041;-92
2022/01/01 05:58:57;;;;;;;115.85;56.45;;;;;;;4.34;100.00;101352.19;10255662;28;20054;-89
2022/01/01 06:03:58;;;;;;;135.68;57.97;;;;;;;7.84;100.00;101939.56;10224230;29;20490;-92
2022/01/01 06:08:59;;;;;;;125.72;58.85;;;;;;;7.68;100.00;102044.13;10223387;29;20031;-92
2022/01/01 06:13:59;;;;;;;134.30;59.20;;;;;;;9.69;100.00;102397.59;10224677;29;20038;-90
2022/01/01 06:19:00;;;;;;;116.65;53.85;;;;;;;5.41;100.00;101681.06;10223505;29;20114;-92
2022/01/01 06:24:00;;;;;;;119.40;54.05;;;;;;;5.59;100.00;101743.38;10223816;29;20444;-92
2022/01/01 06:29:01;;;;;;;106.97;49.45;;;;;;;5.22;100.00;101524.28;10238437;29;20015;-92
2022/01/01 06:34:02;;;;;;;116.90;51.72;;;;;;;6.54;100.00;101777.31;10239591;29;20034;-91
2022/01/01 06:39:03;;;;;;;116.13;51.30;;;;;;;9.67;100.00;102370.34;10239385;29;20034;-92
2022/01/01 06:44:03;;;;;;;109.43;48.13;;;;;;;5.64;100.00;101555.97;10222574;29;20447;-92
2022/01/01 06:49:04;;;;;;;114.13;50.75;;;;;;;6.36;100.00;101805.22;10239462;29;20074;-91
2022/01/01 06:54:05;;;;;;;117.25;48.53;;;;;;;7.24;100.00;101807.16;10223337;29;20058;-92
2022/01/01 06:59:05;;;;;;;118.53;43.10;;;;;;;8.24;100.00;102100.59;10227819;28;20029;-89
2022/01/01 07:04:06;;;;;;;105.50;45.22;;;;;;;4.35;100.00;101521.00;10244083;28;20027;-90
2022/01/01 07:09:07;;;;;;;115.07;44.88;;;;;;;7.98;100.00;102145.25;10258543;28;20114;-90
2022/01/01 07:14:07;;;;;;;106.88;38.97;;;;;;;4.88;100.00;101539.66;10260123;28;20022;-91
2022/01/01 07:19:08;;;;;;;114.43;38.85;;;;;;;8.26;100.00;102104.81;10262478;28;20051;-90
2022/01/01 07:24:08;;;;;;;113.03;40.55;;;;;;;5.53;100.00;101657.63;10251867;28;20043;-89
2022/01/01 07:29:09;;;;;;;111.90;37.22;;;;;;;6.42;100.00;101699.63;10241205;28;20029;-89
2022/01/01 07:34:09;;;;;;;115.95;37.95;;;;;;;5.87;100.00;101653.16;10243589;28;20357;-89
2022/01/01 07:39:10;;;;;;;111.30;40.33;;;;;;;3.70;100.00;101307.78;10260315;28;20019;-90
2022/01/01 07:44:11;;;;;;;124.68;40.75;;;;;;;6.86;100.00;101794.03;10244309;28;20034;-90
2022/01/01 07:49:11;;;;;;;122.90;40.60;;;;;;;5.09;100.00;101633.41;10261817;28;20023;-91
2022/01/01 07:54:12;;;;;;;116.55;40.05;;;;;;;3.39;100.00;101273.63;10262809;28;20035;-91
2022/01/01 07:59:12;;;;;;;116.22;39.47;;;;;;;5.77;100.00;101773.78;10260146;28;20138;-92
2022/01/01 08:04:13;;;;;;;118.32;38.30;;;;;;;7.73;100.00;102029.81;10265418;28;20030;-91
2022/01/01 08:09:14;;;;;;;114.22;39.65;;;;;;;8.27;100.00;102054.38;10268370;28;20105;-92
2022/01/01 08:14:15;;;;;;;128.70;37.75;;;;;;;6.56;100.00;101924.88;10271456;28;20023;-90
2022/01/01 08:19:15;;;;;;;112.30;36.00;;;;;;;5.65;100.00;101644.25;10256032;28;20043;-90
2022/01/01 08:24:16;;;;;;;98.18;35.13;;;;;;;4.16;100.00;101274.53;10264447;28;20054;-90
2022/01/01 08:29:17;;;;;;;96.57;35.78;;;;;;;8.17;100.00;102103.31;10264463;28;20019;-90
2022/01/01 08:34:19;;;;;;;90.82;34.47;;;;;;;7.14;100.00;101872.47;10264851;28;20026;-88
2022/01/01 08:39:20;;;;;;;104.90;33.17;;;;;;;8.76;100.00;102153.03;10280145;28;20023;-88
2022/01/01 08:44:20;;;;;;;97.28;34.17;;;;;;;6.26;100.00;101789.22;10266594;28;20387;-91
2022/01/01 08:49:21;;;;;;;96.22;36.05;;;;;;;3.64;100.00;101297.69;10266977;28;20061;-91
2022/01/01 08:54:21;;;;;;;103.05;34.15;;;;;;;4.62;100.00;101529.41;10264789;28;20027;-91
2022/01/01 08:59:22;;;;;;;94.78;33.22;;;;;;;7.60;100.00;101877.16;10223440;28;20032;-89
2022/01/01 09:04:23;;;;;;;109.10;35.08;;;;;;;7.97;100.00;101954.34;10230106;28;20027;-89
2022/01/01 09:09:23;;;;;;;100.88;34.42;;;;;;;4.67;100.00;101385.06;10240649;28;20019;-88
2022/01/01 09:14:24;;;;;;;95.20;36.60;;;;;;;5.19;100.00;101495.53;10257587;28;20046;-89
2022/01/01 09:19:24;;;;;;;94.20;36.53;;;;;;;3.56;100.00;101197.13;10260641;28;20045;-89
2022/01/01 09:24:25;;;;;;;110.50;38.15;;;;;;;6.14;100.00;101624.06;10260407;28;20114;-88
2022/01/01 09:29:25;;;;;;;95.28;38.38;;;;;;;7.79;100.00;101876.31;10279645;28;20023;-91
2022/01/01 09:34:26;;;;;;;100.05;37.15;;;;;;;9.17;100.00;102118.97;10266533;28;20086;-90
2022/01/01 09:39:27;;;;;;;109.68;41.67;;;;;;;9.77;100.00;102305.78;10252817;28;20019;-89
2022/01/01 09:44:27;;;;;;;104.47;39.83;;;;;;;7.56;100.00;101974.53;10268988;28;20042;-89
2022/01/01 09:49:28;;;;;;;105.88;40.60;;;;;;;7.67;100.00;101976.69;10278841;28;20105;-91
2022/01/01 09:54:30;;;;;;;99.70;38.50;;;;;;;5.28;100.00;101419.72;10252630;28;20046;-89
2022/01/01 09:59:32;;;;;;;97.60;39.85;;;;;;;7.19;100.00;101731.13;10223180;29;20118;-91
2022/01/01 10:04:48;;;;;;;94.43;40.75;;;;;;;9.37;100.00;102099.69;10239513;29;20023;-90
2022/01/01 10:09:49;;;;;;;92.27;37.73;;;;;;;8.87;100.00;102109.28;10237492;29;20031;-88
2022/01/01 10:14:49;;;;;;;81.35;36.78;;;;;;;6.88;100.00;101649.59;10272304;28;20523;-88
2022/01/01 10:19:51;;;;;;;73.75;34.38;;;;;;;5.29;100.00;101339.50;10260399;28;20070;-89
2022/01/01 10:30:36;;;;;;;62.67;29.55;;;;;;;9.23;100.00;101925.78;10239562;29;20020;-89
2022/01/01 10:35:41;;;;;;;60.42;26.85;;;;;;;9.03;100.00;101921.22;10237365;29;20034;-89
2022/01/01 10:40:41;;;;;;;54.17;27.20;;;;;;;9.17;100.00;101833.22;10236831;29;20054;-89
2022/01/01 10:45:47;;;;;;;47.92;23.60;;;;;;;8.08;100.00;101757.09;10204717;29;20039;-88
2022/01/01 10:50:49;;;;;;;50.40;24.40;;;;;;;8.43;100.00;101777.88;10205091;29;20019;-88
2022/01/01 10:55:58;;;;;;;49.08;22.10;;;;;;;7.80;100.00;101792.19;10264052;28;20109;-88
2022/01/01 11:01:05;;;;;;;43.33;19.65;;;;;;;4.08;100.00;101032.22;10260078;28;20030;-88
2022/01/01 11:06:15;;;;;;;44.03;20.17;;;;;;;6.47;100.00;101481.03;10293983;28;20530;-89
2022/01/01 11:11:16;;;;;;;31.58;16.23;;;;;;;7.33;100.00;101575.78;10275740;28;20022;-90
2022/01/01 11:16:19;;;;;;;32.72;15.10;;;;;;;7.15;100.00;101559.19;10260543;28;20023;-90
2022/01/01 11:21:21;;;;;;;35.42;15.52;;;;;;;7.94;100.00;101763.69;10260532;28;20039;-90
2022/01/01 11:26:21;;;;;;;25.88;13.13;;;;;;;7.45;100.00;101674.59;10260678;28;20054;-91
2022/01/01 11:31:22;;;;;;;25.67;13.15;;;;;;;7.53;100.00;101673.53;10236639;28;20110;-88
2022/01/01 11:36:23;;;;;;;38.78;13.45;;;;;;;7.83;100.00;101649.19;10219419;28;20480;-90
2022/01/01 11:41:24;;;;;;;30.67;12.73;;;;;;;5.94;100.00;101333.44;10227520;29;20174;-88
2022/01/01 11:46:33;;;;;;;30.90;13.20;;;;;;;7.52;100.00;101648.00;10242931;29;20121;-90
2022/01/01 11:51:45;;;;;;;31.75;13.18;;;;;;;9.09;100.00;101872.78;10263550;28;20061;-89
2022/01/01 11:56:46;;;;;;;29.00;12.10;;;;;;;9.40;100.00;101811.50;10241209;29;20081;-90
2022/01/01 12:01:51;;;;;;;26.98;11.73;;;;;;;5.28;100.00;101285.97;10240512;28;20033;-90
2022/01/01 12:06:57;;;;;;;27.63;11.10;;;;;;;6.92;100.00;101399.00;10268931;28;20100;-89
2022/01/01 12:11:57;;;;;;;24.30;11.13;;;;;;;7.51;100.00;101708.53;10269741;28;20062;-91
2022/01/01 12:16:58;;;;;;;22.52;10.27;;;;;;;10.77;100.00;102266.88;10267903;28;20321;-91
2022/01/01 12:22:05;;;;;;;21.58;8.93;;;;;;;7.37;100.00;101546.91;10266784;28;20121;-90
2022/01/01 12:27:12;;;;;;;19.30;9.55;;;;;;;5.34;100.00;101115.84;10267634;28;20097;-92
2022/01/01 12:32:13;;;;;;;;;;;;;;;11.37;100.00;102063.25;10260288;28;20051;-91
2022/01/01 12:37:13;;;;;;;21.83;9.70;;;;;;;6.36;100.00;101348.50;10265879;28;19917;-91
2022/01/01 12:42:33;;;;;;;23.13;9.10;;;;;;;6.36;100.00;101388.69;10266559;28;20019;-92
2022/01/01 12:47:36;;;;;;;20.75;9.23;;;;;;;6.57;100.00;101265.28;10282964;28;20039;-88
2022/01/01 12:52:37;;;;;;;17.05;7.07;;;;;;;8.66;100.00;101734.28;10248571;28;20494;-88
2022/01/01 12:57:37;;;;;;;14.43;6.85;;;;;;;4.67;100.00;101084.25;10265353;28;20031;-90
2022/01/01 13:02:38;;;;;;;19.63;7.03;;;;;;;7.30;100.00;101570.75;10264634;28;20023;-89
2022/01/01 13:07:46;;;;;;;15.18;7.35;;;;;;;3.91;100.00;101014.59;10280714;28;20054;-91
2022/01/01 13:12:48;;;;;;;16.77;7.90;;;;;;;9.83;100.00;101873.94;10265704;28;20077;-94
2022/01/01 13:17:50;;;;;;;17.85;8.02;;;;;;;7.52;100.00;101478.13;10267007;28;20109;-89
2022/01/01 13:23:04;;;;;;;16.95;8.38;;;;;;;6.20;100.00;101218.59;10280495;28;20042;-94
2022/01/01 13:28:05;;;;;;;16.42;6.82;;;;;;;7.95;100.00;101647.44;10282032;28;20039;-92
2022/01/01 13:33:06;;;;;;;27.70;8.13;;;;;;;7.47;100.00;101424.00;10266936;28;20058;-91
2022/01/01 13:38:11;;;;;;;17.95;7.70;;;;;;;7.43;100.00;101450.16;10266010;28;20587;-89
2022/01/01 13:43:11;;;;;;;24.55;8.40;;;;;;;9.46;100.00;101777.59;10278992;28;20023;-88
2022/01/01 13:48:14;;;;;;;19.35;7.38;;;;;;;9.51;100.00;101856.69;10262792;28;20034;-88
2022/01/01 13:53:14;;;;;;;20.25;7.95;;;;;;;8.41;100.00;101769.00;10249229;28;20035;-94
2022/01/01 13:58:15;;;;;;;16.95;7.22;;;;;;;7.44;100.00;101649.13;10275014;28;20097;-89
2022/01/01 14:03:16;;;;;;;19.92;7.85;;;;;;;9.62;100.00;101844.09;10284435;28;20053;-91
2022/01/01 14:08:17;;;;;;;18.17;7.53;;;;;;;8.00;100.00;101652.25;10266591;28;20082;-88
2022/01/01 14:13:35;;;;;;;17.55;7.15;;;;;;;9.05;100.00;101702.09;10238528;29;20043;-89
2022/01/01 14:18:39;;;;;;;17.67;7.55;;;;;;;7.03;100.00;101554.41;10239843;29;20052;-92
2022/01/01 14:23:42;;;;;;;21.75;7.60;;;;;;;8.32;100.00;101562.63;10240854;29;20046;-92
2022/01/01 14:28:48;;;;;;;24.02;9.20;;;;;;;8.72;100.00;101696.00;10222143;29;20033;-89
2022/01/01 14:33:49;;;;;;;;;;;;;;;11.27;100.00;101977.50;10240798;29;20027;-89
2022/01/01 14:38:51;;;;;;;18.23;8.43;;;;;;;6.20;100.00;101273.25;10254841;29;19914;-89
2022/01/01 14:43:51;;;;;;;14.55;7.63;;;;;;;7.55;100.00;101348.09;10237329;29;20054;-90
2022/01/01 14:49:01;;;;;;;14.32;7.13;;;;;;;9.85;100.00;101858.06;10237761;29;20512;-91
2022/01/01 14:54:03;;;;;;;19.50;7.72;;;;;;;11.14;100.00;101969.38;10222276;29;20499;-89
2022/01/01 14:59:13;;;;;;;22.50;9.32;;;;;;;9.43;100.00;101749.75;10265793;28;20039;-90
2022/01/01 15:04:15;;;;;;;19.65;7.97;;;;;;;5.33;100.00;101138.72;10244871;28;20430;-92
2022/01/01 15:09:16;;;;;;;18.00;7.88;;;;;;;6.78;100.00;101359.06;10261088;28;20528;-89
2022/01/01 15:14:16;;;;;;;16.90;8.00;;;;;;;6.02;100.00;101412.50;10252473;28;20121;-88
2022/01/01 15:19:17;;;;;;;15.10;8.40;;;;;;;8.33;100.00;101602.72;10252652;28;20050;-88
2022/01/01 15:24:19;;;;;;;16.40;7.90;;;;;;;10.58;100.00;101996.06;10271607;28;20130;-89
2022/01/01 15:29:31;;;;;;;16.13;8.40;;;;;;;7.45;100.00;101579.53;10252815;28;20026;-89
2022/01/01 15:34:32;;;;;;;15.88;7.55;;;;;;;6.66;100.00;101427.34;10286327;28;20034;-89
2022/01/01 15:39:33;;;;;;;20.35;8.27;;;;;;;6.12;100.00;101391.03;10268742;28;20034;-90
2022/01/01 15:44:35;;;;;;;17.58;8.13;;;;;;;8.94;100.00;101825.56;10269823;28;20433;-89
2022/01/01 15:49:36;;;;;;;45.85;29.88;;;;;;;6.93;100.00;101482.81;10268183;28;20034;-89
2022/01/01 15:54:37;;;;;;;13.98;7.82;;;;;;;6.44;100.00;101506.06;10266662;28;20027;-87
2022/01/01 15:59:41;;;;;;;16.85;7.80;;;;;;;10.75;100.00;102121.16;10283385;28;20168;-93
2022/01/01 16:04:48;;;;;;;15.23;8.35;;;;;;;9.01;100.00;101878.53;10227554;29;20034;-92
2022/01/01 16:09:49;;;;;;;14.20;8.30;;;;;;;8.76;100.00;101716.47;10227652;29;20031;-92
2022/01/01 16:14:51;;;;;;;12.73;7.65;;;;;;;5.40;100.00;101308.84;10211882;29;20114;-87
2022/01/01 16:19:52;;;;;;;18.92;7.18;;;;;;;7.28;100.00;101434.03;10244397;29;20134;-94
2022/01/01 16:24:56;;;;;;;12.52;7.20;;;;;;;5.75;100.00;101267.66;10227998;29;20364;-88
2022/01/01 16:29:57;;;;;;;14.18;8.60;;;;;;;6.37;100.00;101302.88;10240608;29;20030;-88
2022/01/01 16:34:58;;;;;;;15.85;7.22;;;;;;;7.43;100.00;101466.59;10227453;29;20023;-94
2022/01/01 16:40:00;;;;;;;17.38;7.35;;;;;;;6.29;100.00;101383.22;10228997;29;20027;-94
2022/01/01 16:45:04;;;;;;;12.25;7.78;;;;;;;8.81;100.00;101694.69;10242327;29;20036;-88
2022/01/01 16:50:12;;;;;;;15.23;7.47;;;;;;;6.61;100.00;101326.72;10240706;29;20024;-92
2022/01/01 16:55:15;;;;;;;14.88;8.50;;;;;;;8.24;100.00;101582.94;10225473;29;20079;-93
2022/01/01 17:00:16;;;;;;;16.13;8.13;;;;;;;8.15;100.00;101649.25;10224567;29;20039;-88
2022/01/01 17:05:16;;;;;;;18.08;7.85;;;;;;;6.22;100.00;101290.28;10224851;29;20038;-93
2022/01/01 17:10:18;;;;;;;13.60;6.97;;;;;;;5.38;100.00;101130.75;10226144;29;20412;-87
2022/01/01 17:15:19;;;;;;;16.70;8.52;;;;;;;7.33;100.00;101520.19;10240283;29;20031;-93
2022/01/01 17:20:25;;;;;;;17.95;8.23;;;;;;;6.66;100.00;101302.31;10223965;29;20408;-87
2022/01/01 17:25:28;;;;;;;13.05;7.93;;;;;;;6.75;100.00;101378.69;10239668;29;20470;-89
2022/01/01 17:30:29;;;;;;;12.75;7.18;;;;;;;7.72;100.00;101568.47;10224209;29;20375;-92
2022/01/01 17:40:32;;;;;;;14.73;7.03;;;;;;;5.27;100.00;101041.31;10224902;29;20034;-93
2022/01/01 17:45:33;;;;;;;10.18;5.65;;;;;;;6.55;100.00;101226.41;10222269;29;20033;-89
2022/01/01 17:50:42;;;;;;;9.98;5.72;;;;;;;3.39;100.00;100666.72;10240448;29;20071;-89
2022/01/01 17:55:43;;;;;;;9.75;5.57;;;;;;;7.02;100.00;101316.44;10223080;29;20023;-87
2022/01/01 18:00:43;;;;;;;11.30;5.95;;;;;;;7.62;100.00;101275.72;10223564;29;20137;-88
2022/01/01 18:05:47;;;;;;;11.13;4.70;;;;;;;7.34;100.00;101309.06;10238401;29;20058;-91
2022/01/01 18:10:48;;;;;;;13.13;4.90;;;;;;;4.71;100.00;101063.69;10228238;28;20015;-93
2022/01/01 18:15:50;;;;;;;11.00;4.88;;;;;;;6.62;100.00;101250.97;10240194;28;20034;-88
2022/01/01 18:20:58;;;;;;;11.38;5.53;;;;;;;3.54;100.00;100679.25;10268906;28;20050;-89
2022/01/01 18:25:59;;;;;;;8.23;5.70;;;;;;;7.40;100.00;101274.44;10264460;28;20054;-92
2022/01/01 18:31:07;;;;;;;7.35;4.47;;;;;;;8.20;100.00;101384.19;10268415;28;20045;-91
2022/01/01 18:36:10;;;;;;;10.50;4.68;;;;;;;6.74;100.00;101127.97;10277641;28;20126;-88
2022/01/01 18:41:12;;;;;;;8.85;4.65;;;;;;;6.87;100.00;101149.78;10244776;28;20027;-91
2022/01/01 18:46:13;;;;;;;8.25;5.95;;;;;;;8.59;100.00;101480.09;10260956;28;20030;-88
2022/01/01 18:51:24;;;;;;;8.18;4.78;;;;;;;10.10;100.00;101747.97;10244384;28;20026;-92
2022/01/01 18:56:46;;;;;;;9.20;5.03;;;;;;;9.20;100.00;101564.38;10244096;28;20039;-94
2022/01/01 19:01:46;;;;;;;8.27;4.97;;;;;;;5.49;100.00;100929.06;10278171;28;20023;-93
2022/01/01 19:06:47;;;;;;;9.15;4.85;;;;;;;6.67;100.00;101156.22;10244665;28;20491;-89
2022/01/01 19:11:52;;;;;;;13.02;4.70;;;;;;;6.62;100.00;101197.09;10277920;28;20122;-90
2022/01/01 19:16:53;;;;;;;11.60;4.90;;;;;;;6.60;100.00;101174.59;10260828;28;20041;-91
2022/01/01 19:21:56;;;;;;;8.73;4.22;;;;;;;7.04;100.00;101297.88;10276405;28;20050;-89
2022/01/01 19:26:57;;;;;;;11.85;4.95;;;;;;;7.53;100.00;101246.94;10259913;28;20027;-88
2022/01/01 19:31:57;;;;;;;7.38;3.92;;;;;;;6.05;100.00;100991.97;10278642;28;20015;-92
2022/01/01 19:37:00;;;;;;;13.43;4.35;;;;;;;11.13;100.00;101851.97;10263797;28;20033;-92
2022/01/01 19:42:00;;;;;;;6.40;4.05;;;;;;;8.98;100.00;101447.78;10257880;28;20122;-92
2022/01/01 19:47:05;;;;;;;11.68;4.97;;;;;;;8.75;100.00;101473.19;10261352;28;20118;-89
2022/01/01 19:52:06;;;;;;;9.27;5.05;;;;;;;10.37;100.00;101738.59;10255507;28;20074;-89
2022/01/01 19:57:07;;;;;;;13.68;5.88;;;;;;;6.22;100.00;101098.03;10230330;28;20093;-92
2022/01/01 20:02:07;;;;;;;7.15;4.50;;;;;;;11.00;100.00;101831.78;10282512;28;20023;-90
2022/01/01 20:07:08;;;;;;;8.50;4.88;;;;;;;9.20;100.00;101486.59;10271848;28;20053;-92
2022/01/01 20:12:09;;;;;;;9.57;5.63;;;;;;;5.56;100.00;101033.63;10242598;29;20026;-87
2022/01/01 20:17:10;;;;;;;10.80;5.55;;;;;;;7.83;100.00;101406.06;10258374;28;20095;-94
2022/01/01 20:22:20;;;;;;;8.13;5.57;;;;;;;8.93;100.00;101519.88;10227043;29;20043;-93
2022/01/01 20:27:20;;;;;;;7.68;4.95;;;;;;;6.49;100.00;101158.91;10231172;29;20046;-88
2022/01/01 20:32:21;;;;;;;8.35;5.78;;;;;;;9.35;100.00;101588.72;10226319;29;20061;-94
2022/01/01 20:37:21;;;;;;;8.68;4.88;;;;;;;7.33;100.00;101236.16;10275356;28;20530;-87
2022/01/01 20:42:22;;;;;;;10.30;5.25;;;;;;;8.84;100.00;101555.03;10240401;29;20078;-89
2022/01/01 20:47:25;;;;;;;8.35;4.65;;;;;;;7.53;100.00;101263.38;10210154;29;20027;-91
2022/01/01 20:52:26;;;;;;;9.73;4.97;;;;;;;7.25;100.00;101355.03;10274702;28;20026;-88
2022/01/01 20:57:26;;;;;;;9.07;4.85;;;;;;;2.95;100.00;100641.03;10247644;28;20042;-89
2022/01/01 21:02:35;;;;;;;12.48;5.80;;;;;;;6.89;100.00;101242.63;10222849;28;20108;-89
2022/01/01 21:07:35;;;;;;;8.38;5.38;;;;;;;7.79;100.00;101295.19;10254941;28;20027;-89
2022/01/01 21:12:38;;;;;;;9.75;5.68;;;;;;;8.20;100.00;101400.66;10255769;28;20468;-95
2022/01/01 21:17:38;;;;;;;9.68;5.57;;;;;;;5.53;100.00;101036.81;10242787;28;20031;-89
2022/01/01 21:22:41;;;;;;;10.55;5.53;;;;;;;7.13;100.00;101246.44;10281195;28;20134;-93
2022/01/01 21:27:41;;;;;;;10.10;5.95;;;;;;;5.61;100.00;101099.38;10265956;28;20490;-90
2022/01/01 21:32:54;;;;;;;11.65;6.28;;;;;;;4.98;100.00;100925.31;10268579;28;20031;-91
2022/01/01 21:38:04;;;;;;;11.65;6.18;;;;;;;6.99;100.00;101281.28;10280925;28;20471;-91
2022/01/01 21:43:14;;;;;;;;;;;;;;;;;;;;;
2022/01/01 21:48:33;;;;;;;10.68;5.03;;;;;;;4.89;100.00;100949.28;10282392;28;20027;-92
2022/01/01 21:53:39;;;;;;;11.75;6.15;;;;;;;5.68;100.00;101045.56;10248193;28;20488;-92
2022/01/01 22:00:09;;;;;;;9.63;5.90;;;;;;;10.39;100.00;101659.38;10274612;28;20057;-92
2022/01/01 22:05:24;;;;;;;13.60;6.55;;;;;;;8.24;100.00;101377.19;10263984;28;20190;-92
2022/01/01 22:11:30;;;;;;;11.57;5.80;;;;;;;5.63;100.00;100914.28;10254075;28;20062;-93
2022/01/01 22:16:21;;;;;;;8.55;6.03;;;;;;;6.14;100.00;101047.22;10264300;28;20507;-93
2022/01/01 22:22:01;;;;;;;;;;;;;;;;;;;;;
2022/01/01 22:27:50;;;;;;;13.63;5.93;;;;;;;5.56;100.00;100979.00;10244232;28;20523;-92
2022/01/01 22:33:14;;;;;;;9.55;6.05;;;;;;;6.59;100.00;101151.03;10283544;28;20039;-93
2022/01/01 22:38:38;;;;;;;;;;;;;;;;;;;;;
2022/01/01 22:44:03;;;;;;;8.57;5.45;;;;;;;3.43;100.00;100605.38;10264392;28;20134;-93
2022/01/01 22:49:06;;;;;;;10.35;5.72;;;;;;;5.54;100.00;100981.97;10279194;28;20066;-94
2022/01/01 22:54:53;;;;;;;9.80;5.35;;;;;;;9.61;100.00;101568.34;10254557;28;20043;-94
2022/01/01 23:00:06;;;;;;;8.00;5.28;;;;;;;6.38;100.00;101102.16;10266475;28;20112;-92
2022/01/01 23:05:32;;;;;;;12.32;5.47;;;;;;;5.22;100.00;100829.06;10250837;28;20089;-90
2022/01/01 23:10:44;;;;;;;9.73;5.80;;;;;;;7.46;100.00;101216.00;10278934;28;20137;-91